sensor_id;sensor_type;location;lat;lon;timestamp;P1;durP1;ratioP1;P2;durP2;ratioP2
18146;SDS011;9199;48.832;9.182;2023-06-19T00:01:57;9.90;;;6.88;;
18146;SDS011;9199;48.832;9.182;2023-06-19T00:04:24;9.25;;;7.10;;
18146;SDS011;9199;48.832;9.182;2023-06-19T00:06:51;9.23;;;6.65;;
18146;SDS011;9199;48.832;9.182;2023-06-19T00:09:19;8.87;;;7.17;;
18146;SDS011;9199;48.832;9.182;2023-06-19T00:11:46;10.60;;;7.78;;
18146;SDS011;9199;48.832;9.182;2023-06-19T00:14:13;9.48;;;7.38;;
18146;SDS011;9199;48.832;9.182;2023-06-19T00:16:40;9.25;;;6.95;;
18146;SDS011;9199;48.832;9.182;2023-06-19T00:19:07;8.80;;;7.30;;
18146;SDS011;9199;48.832;9.182;2023-06-19T00:21:33;8.37;;;7.20;;
18146;SDS011;9199;48.832;9.182;2023-06-19T00:24:00;8.80;;;6.63;;
18146;SDS011;9199;48.832;9.182;2023-06-19T00:26:28;9.90;;;7.05;;
18146;SDS011;9199;48.832;9.182;2023-06-19T00:28:55;9.32;;;7.00;;
18146;SDS011;9199;48.832;9.182;2023-06-19T00:31:22;10.07;;;7.22;;
18146;SDS011;9199;48.832;9.182;2023-06-19T00:33:49;9.90;;;6.87;;
18146;SDS011;9199;48.832;9.182;2023-06-19T00:36:16;10.77;;;7.63;;
18146;SDS011;9199;48.832;9.182;2023-06-19T00:38:45;11.40;;;7.60;;
18146;SDS011;9199;48.832;9.182;2023-06-19T00:41:12;10.32;;;7.57;;
18146;SDS011;9199;48.832;9.182;2023-06-19T00:43:40;13.23;;;7.00;;
18146;SDS011;9199;48.832;9.182;2023-06-19T00:46:06;12.17;;;7.40;;
18146;SDS011;9199;48.832;9.182;2023-06-19T00:48:33;11.18;;;7.40;;
18146;SDS011;9199;48.832;9.182;2023-06-19T00:51:00;12.05;;;7.63;;
18146;SDS011;9199;48.832;9.182;2023-06-19T00:53:27;12.88;;;7.95;;
18146;SDS011;9199;48.832;9.182;2023-06-19T00:55:55;9.45;;;7.10;;
18146;SDS011;9199;48.832;9.182;2023-06-19T00:58:23;10.93;;;7.97;;
18146;SDS011;9199;48.832;9.182;2023-06-19T01:00:51;9.43;;;7.18;;
18146;SDS011;9199;48.832;9.182;2023-06-19T01:03:18;11.07;;;7.60;;
18146;SDS011;9199;48.832;9.182;2023-06-19T01:05:45;9.40;;;7.40;;
18146;SDS011;9199;48.832;9.182;2023-06-19T01:08:17;10.02;;;7.43;;
18146;SDS011;9199;48.832;9.182;2023-06-19T01:10:57;9.27;;;7.63;;
18146;SDS011;9199;48.832;9.182;2023-06-19T01:13:28;9.50;;;6.50;;
18146;SDS011;9199;48.832;9.182;2023-06-19T01:16:02;8.75;;;6.28;;
18146;SDS011;9199;48.832;9.182;2023-06-19T01:18:30;9.98;;;5.80;;
18146;SDS011;9199;48.832;9.182;2023-06-19T01:21:08;10.10;;;5.55;;
18146;SDS011;9199;48.832;9.182;2023-06-19T01:23:37;9.20;;;5.23;;
18146;SDS011;9199;48.832;9.182;2023-06-19T01:26:04;9.15;;;5.10;;
18146;SDS011;9199;48.832;9.182;2023-06-19T01:28:32;7.13;;;5.00;;
18146;SDS011;9199;48.832;9.182;2023-06-19T01:30:59;12.77;;;5.80;;
18146;SDS011;9199;48.832;9.182;2023-06-19T01:33:28;9.75;;;4.70;;
18146;SDS011;9199;48.832;9.182;2023-06-19T01:35:56;7.90;;;4.77;;
18146;SDS011;9199;48.832;9.182;2023-06-19T01:38:24;8.52;;;4.85;;
18146;SDS011;9199;48.832;9.182;2023-06-19T01:40:55;7.03;;;4.20;;
18146;SDS011;9199;48.832;9.182;2023-06-19T01:43:23;8.35;;;4.22;;
18146;SDS011;9199;48.832;9.182;2023-06-19T01:45:52;11.50;;;4.20;;
18146;SDS011;9199;48.832;9.182;2023-06-19T01:48:19;7.00;;;3.43;;
18146;SDS011;9199;48.832;9.182;2023-06-19T01:50:46;6.40;;;3.90;;
18146;SDS011;9199;48.832;9.182;2023-06-19T01:53:14;7.20;;;4.00;;
18146;SDS011;9199;48.832;9.182;2023-06-19T01:55:41;5.60;;;3.67;;
18146;SDS011;9199;48.832;9.182;2023-06-19T01:58:09;6.05;;;3.80;;
18146;SDS011;9199;48.832;9.182;2023-06-19T02:00:36;9.23;;;4.00;;
18146;SDS011;9199;48.832;9.182;2023-06-19T02:03:02;7.72;;;3.70;;
18146;SDS011;9199;48.832;9.182;2023-06-19T02:05:29;5.95;;;3.78;;
18146;SDS011;9199;48.832;9.182;2023-06-19T02:07:56;6.38;;;3.65;;
18146;SDS011;9199;48.832;9.182;2023-06-19T02:10:23;5.60;;;3.53;;
18146;SDS011;9199;48.832;9.182;2023-06-19T02:12:50;7.17;;;3.47;;
18146;SDS011;9199;48.832;9.182;2023-06-19T02:15:18;5.75;;;3.67;;
18146;SDS011;9199;48.832;9.182;2023-06-19T02:17:44;6.80;;;3.40;;
18146;SDS011;9199;48.832;9.182;2023-06-19T02:20:11;5.18;;;3.58;;
18146;SDS011;9199;48.832;9.182;2023-06-19T02:22:38;5.93;;;3.72;;
18146;SDS011;9199;48.832;9.182;2023-06-19T02:25:05;5.07;;;3.47;;
18146;SDS011;9199;48.832;9.182;2023-06-19T02:27:33;6.15;;;3.63;;
18146;SDS011;9199;48.832;9.182;2023-06-19T02:29:59;4.95;;;3.53;;
18146;SDS011;9199;48.832;9.182;2023-06-19T02:32:27;5.53;;;3.70;;
18146;SDS011;9199;48.832;9.182;2023-06-19T02:34:54;6.25;;;3.70;;
18146;SDS011;9199;48.832;9.182;2023-06-19T02:37:21;10.60;;;3.40;;
18146;SDS011;9199;48.832;9.182;2023-06-19T02:39:47;5.15;;;3.53;;
18146;SDS011;9199;48.832;9.182;2023-06-19T02:42:14;6.43;;;3.38;;
18146;SDS011;9199;48.832;9.182;2023-06-19T02:44:41;5.78;;;3.45;;
18146;SDS011;9199;48.832;9.182;2023-06-19T02:47:08;5.57;;;3.40;;
18146;SDS011;9199;48.832;9.182;2023-06-19T02:49:36;5.33;;;3.47;;
18146;SDS011;9199;48.832;9.182;2023-06-19T02:52:03;9.18;;;3.50;;
18146;SDS011;9199;48.832;9.182;2023-06-19T02:54:30;5.95;;;3.63;;
18146;SDS011;9199;48.832;9.182;2023-06-19T02:56:57;6.10;;;3.90;;
18146;SDS011;9199;48.832;9.182;2023-06-19T02:59:24;6.47;;;3.50;;
18146;SDS011;9199;48.832;9.182;2023-06-19T03:01:51;5.83;;;3.77;;
18146;SDS011;9199;48.832;9.182;2023-06-19T03:04:18;5.80;;;3.67;;
18146;SDS011;9199;48.832;9.182;2023-06-19T03:06:46;5.00;;;3.58;;
18146;SDS011;9199;48.832;9.182;2023-06-19T03:09:13;5.05;;;3.47;;
18146;SDS011;9199;48.832;9.182;2023-06-19T03:11:40;5.18;;;3.20;;
18146;SDS011;9199;48.832;9.182;2023-06-19T03:14:07;5.07;;;3.40;;
18146;SDS011;9199;48.832;9.182;2023-06-19T03:16:34;7.10;;;3.70;;
18146;SDS011;9199;48.832;9.182;2023-06-19T03:19:01;6.07;;;3.47;;
18146;SDS011;9199;48.832;9.182;2023-06-19T03:21:28;6.63;;;3.55;;
18146;SDS011;9199;48.832;9.182;2023-06-19T03:23:56;5.95;;;3.58;;
18146;SDS011;9199;48.832;9.182;2023-06-19T03:26:23;6.53;;;3.30;;
18146;SDS011;9199;48.832;9.182;2023-06-19T03:28:50;5.55;;;3.45;;
18146;SDS011;9199;48.832;9.182;2023-06-19T03:31:17;6.97;;;3.13;;
18146;SDS011;9199;48.832;9.182;2023-06-19T03:33:44;5.72;;;3.13;;
18146;SDS011;9199;48.832;9.182;2023-06-19T03:36:11;4.90;;;2.95;;
18146;SDS011;9199;48.832;9.182;2023-06-19T03:38:38;4.90;;;3.07;;
18146;SDS011;9199;48.832;9.182;2023-06-19T03:41:06;5.00;;;3.28;;
18146;SDS011;9199;48.832;9.182;2023-06-19T03:43:33;4.95;;;2.90;;
18146;SDS011;9199;48.832;9.182;2023-06-19T03:45:59;4.30;;;2.58;;
18146;SDS011;9199;48.832;9.182;2023-06-19T03:48:26;4.35;;;2.80;;
18146;SDS011;9199;48.832;9.182;2023-06-19T03:50:53;4.77;;;2.67;;
18146;SDS011;9199;48.832;9.182;2023-06-19T03:53:20;5.93;;;2.72;;
18146;SDS011;9199;48.832;9.182;2023-06-19T03:55:47;5.93;;;3.40;;
18146;SDS011;9199;48.832;9.182;2023-06-19T03:58:15;10.10;;;4.93;;
18146;SDS011;9199;48.832;9.182;2023-06-19T04:00:41;13.40;;;6.65;;
18146;SDS011;9199;48.832;9.182;2023-06-19T04:03:08;21.63;;;10.47;;
18146;SDS011;9199;48.832;9.182;2023-06-19T04:05:35;18.60;;;8.80;;
18146;SDS011;9199;48.832;9.182;2023-06-19T04:08:02;14.60;;;6.97;;
18146;SDS011;9199;48.832;9.182;2023-06-19T04:10:29;6.72;;;3.85;;
18146;SDS011;9199;48.832;9.182;2023-06-19T04:12:56;5.13;;;2.75;;
18146;SDS011;9199;48.832;9.182;2023-06-19T04:15:24;4.07;;;2.30;;
18146;SDS011;9199;48.832;9.182;2023-06-19T04:17:51;4.22;;;2.50;;
18146;SDS011;9199;48.832;9.182;2023-06-19T04:20:18;4.90;;;2.35;;
18146;SDS011;9199;48.832;9.182;2023-06-19T04:22:45;5.70;;;2.63;;
18146;SDS011;9199;48.832;9.182;2023-06-19T04:25:12;4.43;;;2.45;;
18146;SDS011;9199;48.832;9.182;2023-06-19T04:27:38;6.03;;;2.57;;
18146;SDS011;9199;48.832;9.182;2023-06-19T04:30:05;5.82;;;2.22;;
18146;SDS011;9199;48.832;9.182;2023-06-19T04:32:34;4.20;;;2.40;;
18146;SDS011;9199;48.832;9.182;2023-06-19T04:35:02;4.70;;;2.30;;
18146;SDS011;9199;48.832;9.182;2023-06-19T04:37:29;4.50;;;2.05;;
18146;SDS011;9199;48.832;9.182;2023-06-19T04:39:56;4.90;;;2.63;;
18146;SDS011;9199;48.832;9.182;2023-06-19T04:42:24;6.22;;;2.35;;
18146;SDS011;9199;48.832;9.182;2023-06-19T04:44:51;4.60;;;2.13;;
18146;SDS011;9199;48.832;9.182;2023-06-19T04:47:21;5.38;;;2.30;;
18146;SDS011;9199;48.832;9.182;2023-06-19T04:49:50;5.13;;;2.13;;
18146;SDS011;9199;48.832;9.182;2023-06-19T04:52:17;4.80;;;2.50;;
18146;SDS011;9199;48.832;9.182;2023-06-19T04:54:44;4.90;;;2.40;;
18146;SDS011;9199;48.832;9.182;2023-06-19T04:57:13;4.57;;;2.50;;
18146;SDS011;9199;48.832;9.182;2023-06-19T04:59:41;4.55;;;2.58;;
18146;SDS011;9199;48.832;9.182;2023-06-19T05:02:09;4.55;;;2.40;;
18146;SDS011;9199;48.832;9.182;2023-06-19T05:04:35;4.53;;;2.40;;
18146;SDS011;9199;48.832;9.182;2023-06-19T05:07:03;4.68;;;2.50;;
18146;SDS011;9199;48.832;9.182;2023-06-19T05:09:31;4.45;;;2.50;;
18146;SDS011;9199;48.832;9.182;2023-06-19T05:11:58;4.40;;;2.35;;
18146;SDS011;9199;48.832;9.182;2023-06-19T05:14:24;4.32;;;2.40;;
18146;SDS011;9199;48.832;9.182;2023-06-19T05:16:51;4.60;;;2.47;;
18146;SDS011;9199;48.832;9.182;2023-06-19T05:19:18;4.95;;;2.45;;
18146;SDS011;9199;48.832;9.182;2023-06-19T05:21:44;4.95;;;2.80;;
18146;SDS011;9199;48.832;9.182;2023-06-19T05:24:12;5.30;;;2.45;;
18146;SDS011;9199;48.832;9.182;2023-06-19T05:26:39;5.07;;;2.80;;
18146;SDS011;9199;48.832;9.182;2023-06-19T05:29:06;4.50;;;2.47;;
18146;SDS011;9199;48.832;9.182;2023-06-19T05:31:33;4.18;;;2.30;;
18146;SDS011;9199;48.832;9.182;2023-06-19T05:34:00;4.97;;;2.38;;
18146;SDS011;9199;48.832;9.182;2023-06-19T05:36:27;4.47;;;2.50;;
18146;SDS011;9199;48.832;9.182;2023-06-19T05:38:54;5.07;;;2.60;;
18146;SDS011;9199;48.832;9.182;2023-06-19T05:41:22;5.07;;;2.43;;
18146;SDS011;9199;48.832;9.182;2023-06-19T05:43:48;9.35;;;2.97;;
18146;SDS011;9199;48.832;9.182;2023-06-19T05:46:15;4.40;;;2.33;;
18146;SDS011;9199;48.832;9.182;2023-06-19T05:48:42;4.63;;;2.40;;
18146;SDS011;9199;48.832;9.182;2023-06-19T05:51:08;5.05;;;2.60;;
18146;SDS011;9199;48.832;9.182;2023-06-19T05:53:35;4.30;;;2.20;;
18146;SDS011;9199;48.832;9.182;2023-06-19T05:56:03;5.10;;;2.70;;
18146;SDS011;9199;48.832;9.182;2023-06-19T05:58:32;4.82;;;2.50;;
18146;SDS011;9199;48.832;9.182;2023-06-19T06:00:59;4.00;;;2.03;;
18146;SDS011;9199;48.832;9.182;2023-06-19T06:03:25;4.30;;;2.47;;
18146;SDS011;9199;48.832;9.182;2023-06-19T06:05:52;4.93;;;2.40;;
18146;SDS011;9199;48.832;9.182;2023-06-19T06:08:19;4.78;;;2.28;;
18146;SDS011;9199;48.832;9.182;2023-06-19T06:10:46;5.65;;;3.03;;
18146;SDS011;9199;48.832;9.182;2023-06-19T06:13:13;4.20;;;2.40;;
18146;SDS011;9199;48.832;9.182;2023-06-19T06:15:41;5.60;;;2.70;;
18146;SDS011;9199;48.832;9.182;2023-06-19T06:18:08;4.47;;;2.40;;
18146;SDS011;9199;48.832;9.182;2023-06-19T06:20:34;4.28;;;2.30;;
18146;SDS011;9199;48.832;9.182;2023-06-19T06:23:01;4.93;;;2.53;;
18146;SDS011;9199;48.832;9.182;2023-06-19T06:25:28;4.57;;;2.30;;
18146;SDS011;9199;48.832;9.182;2023-06-19T06:27:55;4.43;;;2.40;;
18146;SDS011;9199;48.832;9.182;2023-06-19T06:30:21;5.93;;;2.60;;
18146;SDS011;9199;48.832;9.182;2023-06-19T06:32:50;4.30;;;2.47;;
18146;SDS011;9199;48.832;9.182;2023-06-19T06:35:17;6.63;;;2.58;;
18146;SDS011;9199;48.832;9.182;2023-06-19T06:37:43;4.45;;;2.47;;
18146;SDS011;9199;48.832;9.182;2023-06-19T06:40:11;3.97;;;2.40;;
18146;SDS011;9199;48.832;9.182;2023-06-19T06:42:38;4.90;;;2.40;;
18146;SDS011;9199;48.832;9.182;2023-06-19T06:45:05;4.63;;;2.40;;
18146;SDS011;9199;48.832;9.182;2023-06-19T06:47:33;4.70;;;2.20;;
18146;SDS011;9199;48.832;9.182;2023-06-19T06:50:02;4.82;;;2.20;;
18146;SDS011;9199;48.832;9.182;2023-06-19T06:52:29;4.00;;;2.10;;
18146;SDS011;9199;48.832;9.182;2023-06-19T06:54:56;5.23;;;2.40;;
18146;SDS011;9199;48.832;9.182;2023-06-19T06:57:22;4.43;;;2.33;;
18146;SDS011;9199;48.832;9.182;2023-06-19T06:59:49;4.13;;;2.10;;
18146;SDS011;9199;48.832;9.182;2023-06-19T07:02:16;5.63;;;2.13;;
18146;SDS011;9199;48.832;9.182;2023-06-19T07:04:43;4.13;;;2.25;;
18146;SDS011;9199;48.832;9.182;2023-06-19T07:07:11;4.10;;;1.83;;
18146;SDS011;9199;48.832;9.182;2023-06-19T07:09:37;4.43;;;2.00;;
18146;SDS011;9199;48.832;9.182;2023-06-19T07:12:04;3.10;;;1.83;;
18146;SDS011;9199;48.832;9.182;2023-06-19T07:14:32;4.13;;;2.00;;
18146;SDS011;9199;48.832;9.182;2023-06-19T07:16:59;4.07;;;2.20;;
18146;SDS011;9199;48.832;9.182;2023-06-19T07:19:25;4.87;;;2.30;;
18146;SDS011;9199;48.832;9.182;2023-06-19T07:21:52;5.07;;;2.20;;
18146;SDS011;9199;48.832;9.182;2023-06-19T07:24:21;3.70;;;2.13;;
18146;SDS011;9199;48.832;9.182;2023-06-19T07:26:48;5.85;;;2.20;;
18146;SDS011;9199;48.832;9.182;2023-06-19T07:29:15;5.30;;;2.25;;
18146;SDS011;9199;48.832;9.182;2023-06-19T07:31:42;3.83;;;2.00;;
18146;SDS011;9199;48.832;9.182;2023-06-19T07:34:09;4.50;;;2.20;;
18146;SDS011;9199;48.832;9.182;2023-06-19T07:36:36;3.95;;;2.10;;
18146;SDS011;9199;48.832;9.182;2023-06-19T07:39:02;3.65;;;2.00;;
18146;SDS011;9199;48.832;9.182;2023-06-19T07:41:30;3.90;;;2.30;;
18146;SDS011;9199;48.832;9.182;2023-06-19T07:43:57;5.53;;;2.30;;
18146;SDS011;9199;48.832;9.182;2023-06-19T07:46:24;4.45;;;2.15;;
18146;SDS011;9199;48.832;9.182;2023-06-19T07:48:51;4.10;;;2.40;;
18146;SDS011;9199;48.832;9.182;2023-06-19T07:51:17;4.53;;;2.45;;
18146;SDS011;9199;48.832;9.182;2023-06-19T07:53:44;5.32;;;2.08;;
18146;SDS011;9199;48.832;9.182;2023-06-19T07:56:11;5.97;;;2.20;;
18146;SDS011;9199;48.832;9.182;2023-06-19T07:58:39;3.70;;;2.00;;
18146;SDS011;9199;48.832;9.182;2023-06-19T08:01:06;3.50;;;1.90;;
18146;SDS011;9199;48.832;9.182;2023-06-19T08:03:33;4.13;;;2.15;;
18146;SDS011;9199;48.832;9.182;2023-06-19T08:05:59;4.82;;;2.55;;
18146;SDS011;9199;48.832;9.182;2023-06-19T08:08:26;3.30;;;1.90;;
18146;SDS011;9199;48.832;9.182;2023-06-19T08:10:53;5.43;;;1.83;;
18146;SDS011;9199;48.832;9.182;2023-06-19T08:13:19;3.58;;;1.90;;
18146;SDS011;9199;48.832;9.182;2023-06-19T08:15:47;4.30;;;2.00;;
18146;SDS011;9199;48.832;9.182;2023-06-19T08:18:14;3.90;;;2.05;;
18146;SDS011;9199;48.832;9.182;2023-06-19T08:20:41;3.87;;;2.10;;
18146;SDS011;9199;48.832;9.182;2023-06-19T08:23:07;3.80;;;1.98;;
18146;SDS011;9199;48.832;9.182;2023-06-19T08:25:34;4.35;;;2.03;;
18146;SDS011;9199;48.832;9.182;2023-06-19T08:28:01;3.88;;;2.17;;
18146;SDS011;9199;48.832;9.182;2023-06-19T08:30:27;3.42;;;2.13;;
18146;SDS011;9199;48.832;9.182;2023-06-19T08:32:55;3.80;;;2.10;;
18146;SDS011;9199;48.832;9.182;2023-06-19T08:35:22;4.20;;;2.20;;
18146;SDS011;9199;48.832;9.182;2023-06-19T08:37:49;3.60;;;1.90;;
18146;SDS011;9199;48.832;9.182;2023-06-19T08:40:15;4.30;;;2.22;;
18146;SDS011;9199;48.832;9.182;2023-06-19T08:42:42;4.45;;;2.08;;
18146;SDS011;9199;48.832;9.182;2023-06-19T08:45:09;4.47;;;2.33;;
18146;SDS011;9199;48.832;9.182;2023-06-19T08:47:37;4.82;;;2.45;;
18146;SDS011;9199;48.832;9.182;2023-06-19T08:50:06;5.13;;;2.17;;
18146;SDS011;9199;48.832;9.182;2023-06-19T08:52:33;5.43;;;2.40;;
18146;SDS011;9199;48.832;9.182;2023-06-19T08:55:00;4.50;;;2.30;;
18146;SDS011;9199;48.832;9.182;2023-06-19T08:57:33;4.00;;;2.27;;
18146;SDS011;9199;48.832;9.182;2023-06-19T09:00:01;4.38;;;2.17;;
18146;SDS011;9199;48.832;9.182;2023-06-19T09:02:36;3.92;;;2.30;;
18146;SDS011;9199;48.832;9.182;2023-06-19T09:05:12;4.20;;;2.40;;
18146;SDS011;9199;48.832;9.182;2023-06-19T09:07:40;4.38;;;2.80;;
18146;SDS011;9199;48.832;9.182;2023-06-19T09:10:14;4.10;;;2.50;;
18146;SDS011;9199;48.832;9.182;2023-06-19T09:12:42;4.93;;;2.50;;
18146;SDS011;9199;48.832;9.182;2023-06-19T09:15:12;4.10;;;2.40;;
18146;SDS011;9199;48.832;9.182;2023-06-19T09:17:39;3.92;;;2.38;;
18146;SDS011;9199;48.832;9.182;2023-06-19T09:20:07;4.35;;;2.38;;
18146;SDS011;9199;48.832;9.182;2023-06-19T09:22:38;5.67;;;2.37;;
18146;SDS011;9199;48.832;9.182;2023-06-19T09:25:06;3.67;;;2.22;;
18146;SDS011;9199;48.832;9.182;2023-06-19T09:27:35;3.78;;;2.40;;
18146;SDS011;9199;48.832;9.182;2023-06-19T09:30:02;5.22;;;2.60;;
18146;SDS011;9199;48.832;9.182;2023-06-19T09:32:31;4.28;;;2.75;;
18146;SDS011;9199;48.832;9.182;2023-06-19T09:34:57;4.07;;;2.50;;
18146;SDS011;9199;48.832;9.182;2023-06-19T09:37:24;3.72;;;2.22;;
18146;SDS011;9199;48.832;9.182;2023-06-19T09:39:55;4.70;;;2.40;;
18146;SDS011;9199;48.832;9.182;2023-06-19T09:42:24;4.85;;;2.70;;
18146;SDS011;9199;48.832;9.182;2023-06-19T09:44:55;4.88;;;2.20;;
18146;SDS011;9199;48.832;9.182;2023-06-19T09:47:25;4.90;;;2.53;;
18146;SDS011;9199;48.832;9.182;2023-06-19T09:49:55;4.55;;;2.58;;
18146;SDS011;9199;48.832;9.182;2023-06-19T09:52:23;5.40;;;2.70;;
18146;SDS011;9199;48.832;9.182;2023-06-19T09:54:50;4.22;;;2.58;;
18146;SDS011;9199;48.832;9.182;2023-06-19T09:57:19;4.82;;;2.70;;
18146;SDS011;9199;48.832;9.182;2023-06-19T09:59:46;4.77;;;2.70;;
18146;SDS011;9199;48.832;9.182;2023-06-19T10:02:14;5.03;;;2.40;;
18146;SDS011;9199;48.832;9.182;2023-06-19T10:04:42;5.90;;;2.78;;
18146;SDS011;9199;48.832;9.182;2023-06-19T10:07:18;4.22;;;2.60;;
18146;SDS011;9199;48.832;9.182;2023-06-19T10:09:55;5.55;;;2.70;;
18146;SDS011;9199;48.832;9.182;2023-06-19T10:12:34;4.67;;;2.80;;
18146;SDS011;9199;48.832;9.182;2023-06-19T10:15:08;5.35;;;3.00;;
18146;SDS011;9199;48.832;9.182;2023-06-19T10:17:47;6.55;;;2.83;;
18146;SDS011;9199;48.832;9.182;2023-06-19T10:20:19;4.95;;;2.83;;
18146;SDS011;9199;48.832;9.182;2023-06-19T10:22:51;4.88;;;3.00;;
18146;SDS011;9199;48.832;9.182;2023-06-19T10:25:22;5.73;;;2.73;;
18146;SDS011;9199;48.832;9.182;2023-06-19T10:27:50;5.47;;;2.83;;
18146;SDS011;9199;48.832;9.182;2023-06-19T10:30:18;6.35;;;3.30;;
18146;SDS011;9199;48.832;9.182;2023-06-19T10:32:45;6.35;;;2.95;;
18146;SDS011;9199;48.832;9.182;2023-06-19T10:35:12;5.78;;;2.78;;
18146;SDS011;9199;48.832;9.182;2023-06-19T10:37:39;5.67;;;2.80;;
18146;SDS011;9199;48.832;9.182;2023-06-19T10:40:07;4.72;;;2.70;;
18146;SDS011;9199;48.832;9.182;2023-06-19T10:42:35;5.95;;;2.60;;
18146;SDS011;9199;48.832;9.182;2023-06-19T10:45:04;7.15;;;2.80;;
18146;SDS011;9199;48.832;9.182;2023-06-19T10:47:32;5.85;;;2.80;;
18146;SDS011;9199;48.832;9.182;2023-06-19T10:49:59;4.77;;;2.70;;
18146;SDS011;9199;48.832;9.182;2023-06-19T10:52:27;4.25;;;2.70;;
18146;SDS011;9199;48.832;9.182;2023-06-19T10:54:55;4.50;;;2.75;;
18146;SDS011;9199;48.832;9.182;2023-06-19T10:57:27;5.43;;;2.70;;
18146;SDS011;9199;48.832;9.182;2023-06-19T10:59:54;4.43;;;2.60;;
18146;SDS011;9199;48.832;9.182;2023-06-19T11:02:22;4.67;;;2.80;;
18146;SDS011;9199;48.832;9.182;2023-06-19T11:04:51;3.88;;;2.58;;
18146;SDS011;9199;48.832;9.182;2023-06-19T11:07:21;5.78;;;2.95;;
18146;SDS011;9199;48.832;9.182;2023-06-19T11:09:48;4.63;;;2.80;;
18146;SDS011;9199;48.832;9.182;2023-06-19T11:12:18;4.18;;;2.80;;
18146;SDS011;9199;48.832;9.182;2023-06-19T11:14:46;4.13;;;2.70;;
18146;SDS011;9199;48.832;9.182;2023-06-19T11:17:13;4.15;;;2.90;;
18146;SDS011;9199;48.832;9.182;2023-06-19T11:19:41;6.20;;;2.70;;
18146;SDS011;9199;48.832;9.182;2023-06-19T11:22:09;6.13;;;3.05;;
18146;SDS011;9199;48.832;9.182;2023-06-19T11:24:36;3.88;;;2.53;;
18146;SDS011;9199;48.832;9.182;2023-06-19T11:27:03;4.70;;;2.90;;
18146;SDS011;9199;48.832;9.182;2023-06-19T11:29:31;9.45;;;3.13;;
18146;SDS011;9199;48.832;9.182;2023-06-19T11:32:04;4.72;;;2.95;;
18146;SDS011;9199;48.832;9.182;2023-06-19T11:34:32;5.97;;;3.13;;
18146;SDS011;9199;48.832;9.182;2023-06-19T11:37:02;4.80;;;3.00;;
18146;SDS011;9199;48.832;9.182;2023-06-19T11:39:37;4.97;;;2.90;;
18146;SDS011;9199;48.832;9.182;2023-06-19T11:42:05;5.22;;;2.90;;
18146;SDS011;9199;48.832;9.182;2023-06-19T11:44:32;5.88;;;2.97;;
18146;SDS011;9199;48.832;9.182;2023-06-19T11:46:59;5.43;;;3.22;;
18146;SDS011;9199;48.832;9.182;2023-06-19T11:49:27;5.07;;;3.10;;
18146;SDS011;9199;48.832;9.182;2023-06-19T11:51:57;4.30;;;2.93;;
18146;SDS011;9199;48.832;9.182;2023-06-19T11:54:25;4.43;;;3.10;;
18146;SDS011;9199;48.832;9.182;2023-06-19T11:56:52;5.20;;;3.20;;
18146;SDS011;9199;48.832;9.182;2023-06-19T11:59:19;5.43;;;3.10;;
18146;SDS011;9199;48.832;9.182;2023-06-19T12:01:45;5.15;;;3.10;;
18146;SDS011;9199;48.832;9.182;2023-06-19T12:04:12;4.70;;;2.97;;
18146;SDS011;9199;48.832;9.182;2023-06-19T12:06:40;5.82;;;2.95;;
18146;SDS011;9199;48.832;9.182;2023-06-19T12:09:06;4.65;;;3.00;;
18146;SDS011;9199;48.832;9.182;2023-06-19T12:11:36;5.10;;;3.10;;
18146;SDS011;9199;48.832;9.182;2023-06-19T12:14:02;4.40;;;3.05;;
18146;SDS011;9199;48.832;9.182;2023-06-19T12:16:29;4.70;;;3.10;;
18146;SDS011;9199;48.832;9.182;2023-06-19T12:18:56;5.15;;;2.95;;
18146;SDS011;9199;48.832;9.182;2023-06-19T12:21:23;4.22;;;3.00;;
18146;SDS011;9199;48.832;9.182;2023-06-19T12:23:50;4.95;;;2.80;;
18146;SDS011;9199;48.832;9.182;2023-06-19T12:26:16;6.47;;;3.10;;
18146;SDS011;9199;48.832;9.182;2023-06-19T12:28:44;5.27;;;3.00;;
18146;SDS011;9199;48.832;9.182;2023-06-19T12:31:11;5.88;;;3.22;;
18146;SDS011;9199;48.832;9.182;2023-06-19T12:33:38;5.53;;;2.97;;
18146;SDS011;9199;48.832;9.182;2023-06-19T12:36:09;6.53;;;3.17;;
18146;SDS011;9199;48.832;9.182;2023-06-19T12:38:38;6.55;;;3.25;;
18146;SDS011;9199;48.832;9.182;2023-06-19T12:41:05;5.23;;;3.00;;
18146;SDS011;9199;48.832;9.182;2023-06-19T12:43:32;4.25;;;2.80;;
18146;SDS011;9199;48.832;9.182;2023-06-19T12:46:00;5.60;;;3.15;;
18146;SDS011;9199;48.832;9.182;2023-06-19T12:48:27;6.53;;;3.50;;
18146;SDS011;9199;48.832;9.182;2023-06-19T12:50:54;5.13;;;2.95;;
18146;SDS011;9199;48.832;9.182;2023-06-19T12:53:21;4.40;;;3.30;;
18146;SDS011;9199;48.832;9.182;2023-06-19T12:55:51;6.40;;;3.20;;
18146;SDS011;9199;48.832;9.182;2023-06-19T12:58:19;4.60;;;3.10;;
18146;SDS011;9199;48.832;9.182;2023-06-19T13:00:45;7.72;;;3.42;;
18146;SDS011;9199;48.832;9.182;2023-06-19T13:03:13;5.40;;;3.20;;
18146;SDS011;9199;48.832;9.182;2023-06-19T13:05:40;4.43;;;3.13;;
18146;SDS011;9199;48.832;9.182;2023-06-19T13:08:07;4.72;;;3.30;;
18146;SDS011;9199;48.832;9.182;2023-06-19T13:10:34;6.90;;;3.42;;
18146;SDS011;9199;48.832;9.182;2023-06-19T13:13:01;5.43;;;3.22;;
18146;SDS011;9199;48.832;9.182;2023-06-19T13:15:27;4.63;;;3.08;;
18146;SDS011;9199;48.832;9.182;2023-06-19T13:17:54;5.10;;;3.23;;
18146;SDS011;9199;48.832;9.182;2023-06-19T13:20:22;4.82;;;3.47;;
18146;SDS011;9199;48.832;9.182;2023-06-19T13:22:49;6.00;;;3.00;;
18146;SDS011;9199;48.832;9.182;2023-06-19T13:25:16;5.28;;;3.30;;
18146;SDS011;9199;48.832;9.182;2023-06-19T13:27:43;7.20;;;3.17;;
18146;SDS011;9199;48.832;9.182;2023-06-19T13:30:10;5.70;;;3.03;;
18146;SDS011;9199;48.832;9.182;2023-06-19T13:32:37;5.30;;;3.20;;
18146;SDS011;9199;48.832;9.182;2023-06-19T13:35:05;5.43;;;3.05;;
18146;SDS011;9199;48.832;9.182;2023-06-19T13:37:34;5.55;;;3.08;;
18146;SDS011;9199;48.832;9.182;2023-06-19T13:40:04;4.85;;;3.00;;
18146;SDS011;9199;48.832;9.182;2023-06-19T13:42:32;5.03;;;3.20;;
18146;SDS011;9199;48.832;9.182;2023-06-19T13:45:00;5.15;;;3.10;;
18146;SDS011;9199;48.832;9.182;2023-06-19T13:47:26;7.07;;;3.22;;
18146;SDS011;9199;48.832;9.182;2023-06-19T13:49:53;5.30;;;2.85;;
18146;SDS011;9199;48.832;9.182;2023-06-19T13:52:20;6.55;;;3.00;;
18146;SDS011;9199;48.832;9.182;2023-06-19T13:54:48;5.27;;;3.40;;
18146;SDS011;9199;48.832;9.182;2023-06-19T13:57:15;6.18;;;3.30;;
18146;SDS011;9199;48.832;9.182;2023-06-19T13:59:42;4.65;;;3.10;;
18146;SDS011;9199;48.832;9.182;2023-06-19T14:02:09;4.93;;;3.30;;
18146;SDS011;9199;48.832;9.182;2023-06-19T14:04:36;5.47;;;3.13;;
18146;SDS011;9199;48.832;9.182;2023-06-19T14:07:03;4.77;;;3.00;;
18146;SDS011;9199;48.832;9.182;2023-06-19T14:09:30;5.00;;;2.83;;
18146;SDS011;9199;48.832;9.182;2023-06-19T14:11:58;4.53;;;3.10;;
18146;SDS011;9199;48.832;9.182;2023-06-19T14:14:25;4.55;;;2.95;;
18146;SDS011;9199;48.832;9.182;2023-06-19T14:16:52;4.40;;;3.10;;
18146;SDS011;9199;48.832;9.182;2023-06-19T14:19:18;6.37;;;3.30;;
18146;SDS011;9199;48.832;9.182;2023-06-19T14:21:45;4.97;;;3.15;;
18146;SDS011;9199;48.832;9.182;2023-06-19T14:24:12;4.60;;;3.08;;
18146;SDS011;9199;48.832;9.182;2023-06-19T14:26:39;5.03;;;3.20;;
18146;SDS011;9199;48.832;9.182;2023-06-19T14:29:07;4.53;;;3.17;;
18146;SDS011;9199;48.832;9.182;2023-06-19T14:31:34;4.73;;;3.07;;
18146;SDS011;9199;48.832;9.182;2023-06-19T14:34:00;5.00;;;3.05;;
18146;SDS011;9199;48.832;9.182;2023-06-19T14:36:27;4.93;;;3.33;;
18146;SDS011;9199;48.832;9.182;2023-06-19T14:38:54;7.07;;;4.40;;
18146;SDS011;9199;48.832;9.182;2023-06-19T14:41:20;5.15;;;3.75;;
18146;SDS011;9199;48.832;9.182;2023-06-19T14:43:47;4.93;;;3.17;;
18146;SDS011;9199;48.832;9.182;2023-06-19T14:46:15;5.53;;;3.20;;
18146;SDS011;9199;48.832;9.182;2023-06-19T14:48:42;6.78;;;3.50;;
18146;SDS011;9199;48.832;9.182;2023-06-19T14:51:09;4.32;;;3.03;;
18146;SDS011;9199;48.832;9.182;2023-06-19T14:53:36;5.00;;;3.10;;
18146;SDS011;9199;48.832;9.182;2023-06-19T14:56:03;4.70;;;3.23;;
18146;SDS011;9199;48.832;9.182;2023-06-19T14:58:30;4.63;;;2.90;;
18146;SDS011;9199;48.832;9.182;2023-06-19T15:00:57;5.88;;;3.20;;
18146;SDS011;9199;48.832;9.182;2023-06-19T15:03:25;4.45;;;3.00;;